Terminal Aerodrome Forecast
Issued by NWS

Home | Current Version | Previous Version | Text Only | Print | Product List | Glossary On
Versions: 1 2 3 4 5 6 7 8 9 10 11 12 13 14 15 16 17
207
FTUS43 KBIS 221139
TAFDIK
TAF
KDIK 221139Z 2212/2312 23011KT P6SM SKC
     FM221400 22011KT P6SM SCT110 SCT220 WS020/26030KT
     FM221700 24018G28KT P6SM BKN080
     FM221900 25019G28KT P6SM VCSH BKN050 OVC070
     FM230100 26018G26KT P6SM SCT110 WS020/27045KT
     FM230800 28019G28KT P6SM SCT070 WS020/30040KT=

USA.gov is the U.S. government's official web portal to all federal, state and local government web resources and services.